createdAt,value
2023-05-14T00:00:12.374Z,94.0659
2023-05-14T00:01:13.148Z,94.5131
2023-05-14T00:02:13.849Z,94.4846
2023-05-14T00:03:16.053Z,93.6160
2023-05-14T00:04:16.231Z,94.5474
2023-05-14T00:05:16.911Z,94.7434
2023-05-14T00:06:16.933Z,94.9346
2023-05-14T00:07:17.592Z,95.2084
2023-05-14T00:08:18.297Z,95.1863
2023-05-14T00:10:18.542Z,94.5903
2023-05-14T00:11:18.551Z,95.3085
2023-05-14T00:12:18.603Z,95.6796
2023-05-14T00:13:18.634Z,95.7300
2023-05-14T00:15:19.474Z,94.9811
2023-05-14T00:16:19.558Z,94.6078
2023-05-14T00:18:20.520Z,94.8482
2023-05-14T00:19:41.551Z,94.8127
2023-05-14T00:20:23.020Z,94.9280
2023-05-14T00:21:23.943Z,95.1262
2023-05-14T00:22:24.582Z,95.1584
2023-05-14T00:23:24.636Z,95.0998
2023-05-14T00:24:25.314Z,95.0344
2023-05-14T00:25:25.372Z,94.7411
2023-05-14T00:26:25.401Z,94.4660
2023-05-14T00:27:26.033Z,94.5821
2023-05-14T00:28:26.078Z,94.9349
2023-05-14T00:29:26.121Z,95.0631
2023-05-14T00:30:26.190Z,95.1254
2023-05-14T00:31:26.883Z,95.3123
2023-05-14T00:32:26.914Z,95.3699
2023-05-14T00:33:27.767Z,95.0953
2023-05-14T00:34:28.450Z,95.0992
2023-05-14T00:35:28.484Z,95.1626
2023-05-14T00:36:29.073Z,95.2476
2023-05-14T00:37:30.061Z,95.4728
2023-05-14T00:38:30.090Z,95.2208
2023-05-14T00:39:30.891Z,95.0930
2023-05-14T00:40:31.988Z,94.9603
2023-05-14T00:41:32.053Z,94.7605
2023-05-14T00:42:32.697Z,94.7675
2023-05-14T00:43:33.650Z,94.7725
2023-05-14T00:45:36.901Z,95.0755
2023-05-14T00:46:37.883Z,95.1630
2023-05-14T00:47:37.947Z,95.0177
2023-05-14T00:48:38.767Z,94.8419
2023-05-14T00:49:38.742Z,94.8013
2023-05-14T00:50:39.472Z,94.9235
2023-05-14T00:51:40.612Z,94.9389
2023-05-14T00:52:41.344Z,94.9658
2023-05-14T00:53:41.404Z,95.1874
2023-05-14T00:54:41.430Z,95.3930
2023-05-14T00:55:41.495Z,95.0077
2023-05-14T00:56:42.077Z,94.9628
2023-05-14T00:57:43.029Z,95.0717
2023-05-14T00:58:43.061Z,95.0758
2023-05-14T00:59:43.138Z,94.8436
2023-05-14T01:00:43.267Z,94.7188
2023-05-14T01:01:43.957Z,94.4791
2023-05-14T01:02:44.065Z,94.4771
2023-05-14T01:03:44.245Z,94.4471
2023-05-14T01:04:44.968Z,94.4868
2023-05-14T01:05:44.985Z,94.4943
2023-05-14T01:06:45.664Z,94.4584
2023-05-14T01:07:46.334Z,94.4036
2023-05-14T01:08:47.057Z,94.3134
2023-05-14T01:09:47.101Z,94.4441
2023-05-14T01:10:47.155Z,94.1910
2023-05-14T01:11:47.864Z,94.2303
2023-05-14T01:12:47.908Z,94.7490
2023-05-14T01:13:48.993Z,94.7135
2023-05-14T01:14:49.930Z,95.0859
2023-05-14T01:15:49.954Z,95.3672
2023-05-14T01:16:50.081Z,95.2739
2023-05-14T01:17:50.158Z,94.9815
2023-05-14T01:18:50.266Z,95.1285
2023-05-14T01:19:50.341Z,94.5828
2023-05-14T01:20:50.384Z,94.2048
2023-05-14T01:21:50.427Z,94.1106
2023-05-14T01:22:50.452Z,94.2166
2023-05-14T01:23:50.523Z,93.9973
2023-05-14T01:24:50.558Z,93.9302
2023-05-14T01:25:50.578Z,94.0677
2023-05-14T01:26:50.626Z,94.2175
2023-05-14T01:27:51.006Z,94.3012
2023-05-14T01:28:51.104Z,94.3406
2023-05-14T01:29:51.114Z,94.6814
2023-05-14T01:30:51.774Z,94.9485
2023-05-14T01:31:51.833Z,94.7473
2023-05-14T01:32:52.482Z,94.8301
2023-05-14T01:33:53.307Z,94.6653
2023-05-14T01:34:53.612Z,94.3687
2023-05-14T01:35:54.356Z,94.2901
2023-05-14T01:36:54.699Z,94.2537
2023-05-14T01:37:54.739Z,94.2263
2023-05-14T01:38:55.926Z,94.3271
2023-05-14T01:39:55.998Z,94.2948
2023-05-14T01:40:56.426Z,94.6479
2023-05-14T01:41:57.187Z,94.8678
2023-05-14T01:42:57.253Z,94.9112
2023-05-14T01:43:58.066Z,95.3416
2023-05-14T01:44:58.764Z,95.3070
2023-05-14T01:45:58.816Z,94.8873
2023-05-14T01:46:59.492Z,94.3746
2023-05-14T01:48:00.796Z,94.5839
2023-05-14T01:49:00.856Z,94.8012
2023-05-14T01:50:01.491Z,95.0677
2023-05-14T01:51:01.692Z,95.1089
2023-05-14T01:53:02.982Z,94.7441
2023-05-14T01:54:03.008Z,94.9930
2023-05-14T01:55:03.691Z,95.2050
2023-05-14T01:56:04.302Z,95.0402
2023-05-14T01:57:05.063Z,94.8373
2023-05-14T01:58:06.556Z,94.5216
2023-05-14T01:59:06.597Z,94.7916
2023-05-14T02:00:07.258Z,95.2000
2023-05-14T02:01:08.603Z,95.2150
2023-05-14T02:07:13.546Z,95.8754
2023-05-14T02:08:13.583Z,96.0184
2023-05-14T02:09:13.612Z,96.1807
2023-05-14T02:10:14.243Z,96.0626
2023-05-14T02:11:14.280Z,95.7898
2023-05-14T02:13:15.142Z,95.2848
2023-05-14T02:14:16.276Z,95.2237
2023-05-14T02:19:23.936Z,95.4981
2023-05-14T02:20:24.624Z,95.5752
2023-05-14T02:21:25.189Z,95.6888
2023-05-14T02:22:26.039Z,95.2312
2023-05-14T02:23:37.983Z,95.1275
2023-05-14T02:24:26.703Z,95.3095
2023-05-14T02:25:27.548Z,95.3613
2023-05-14T02:26:28.218Z,95.4891
2023-05-14T02:27:28.671Z,95.4860
2023-05-14T02:28:29.322Z,95.6435
2023-05-14T02:29:29.424Z,95.9232
2023-05-14T02:30:29.817Z,95.3038
2023-05-14T02:31:30.898Z,94.9826
2023-05-14T02:32:31.250Z,95.0251
2023-05-14T02:33:32.452Z,95.0673
2023-05-14T02:34:33.484Z,94.8379
2023-05-14T02:35:33.559Z,94.8361
2023-05-14T02:36:34.404Z,94.8042
2023-05-14T02:37:35.630Z,94.9755
2023-05-14T02:38:35.692Z,95.1517
2023-05-14T02:39:36.361Z,95.1209
2023-05-14T02:40:36.504Z,95.4661
2023-05-14T02:41:37.933Z,95.6368
2023-05-14T02:42:38.856Z,95.9152
2023-05-14T02:43:38.911Z,96.0207
2023-05-14T02:44:40.416Z,96.1931
2023-05-14T02:45:41.169Z,96.3292
2023-05-14T02:46:41.616Z,96.3405
2023-05-14T02:47:42.607Z,96.4217
2023-05-14T02:48:43.785Z,96.3735
2023-05-14T02:49:43.835Z,96.4423
2023-05-14T02:50:44.703Z,96.3801
2023-05-14T02:51:44.968Z,96.4686
2023-05-14T02:52:45.109Z,96.5316
2023-05-14T02:53:45.344Z,96.4812
2023-05-14T02:54:46.420Z,96.4306
2023-05-14T02:55:46.513Z,96.3881
2023-05-14T02:56:47.375Z,96.5131
2023-05-14T02:57:47.633Z,96.6511
2023-05-14T02:59:48.268Z,96.4263
2023-05-14T03:00:48.854Z,96.4867
2023-05-14T03:01:50.400Z,96.5650
2023-05-14T03:02:51.124Z,96.5352
2023-05-14T03:03:51.883Z,96.5033
2023-05-14T03:04:52.717Z,96.5727
2023-05-14T03:05:52.927Z,96.6375
2023-05-14T03:06:53.575Z,96.6284
2023-05-14T03:07:54.526Z,96.7994
2023-05-14T03:08:54.754Z,96.7399
2023-05-14T03:09:55.512Z,96.6002
2023-05-14T03:10:56.327Z,96.4278
2023-05-14T03:11:56.779Z,96.5095
2023-05-14T03:12:57.638Z,96.4598
2023-05-14T03:13:57.693Z,96.3302
2023-05-14T03:14:58.998Z,96.3403
2023-05-14T03:15:59.939Z,96.1427
2023-05-14T03:17:00.841Z,96.3044
2023-05-14T03:18:01.123Z,96.4571
2023-05-14T03:19:01.322Z,96.5282
2023-05-14T03:20:01.968Z,96.5328
2023-05-14T03:21:02.824Z,96.3584
2023-05-14T03:22:02.882Z,96.4000
2023-05-14T03:23:03.139Z,96.5440
2023-05-14T03:24:03.375Z,96.7202
2023-05-14T03:25:04.249Z,96.7443
2023-05-14T03:26:04.576Z,96.8230
2023-05-14T03:27:04.638Z,96.8141
2023-05-14T03:28:05.461Z,96.8604
2023-05-14T03:29:05.516Z,97.0257
2023-05-14T03:30:06.770Z,97.1176
2023-05-14T03:31:07.569Z,97.2310
2023-05-14T03:32:08.279Z,97.2485
2023-05-14T03:33:09.108Z,97.2977
2023-05-14T03:34:09.205Z,97.4289
2023-05-14T03:35:10.782Z,97.5592
2023-05-14T03:36:11.754Z,97.6824
2023-05-14T03:38:13.236Z,97.7682
2023-05-14T03:39:13.713Z,97.8417
2023-05-14T03:40:14.969Z,97.9165
2023-05-14T03:41:16.007Z,97.9573
2023-05-14T03:42:16.889Z,97.9948
2023-05-14T03:43:17.005Z,98.1097
2023-05-14T03:44:17.965Z,98.2052
2023-05-14T03:45:19.574Z,98.1441
2023-05-14T03:46:21.521Z,98.0917
2023-05-14T03:48:25.359Z,98.0743
2023-05-14T03:49:25.491Z,98.0874
2023-05-14T03:50:26.347Z,98.1398
2023-05-14T03:51:27.113Z,98.1773
2023-05-14T03:52:27.155Z,98.2128
2023-05-14T03:53:27.887Z,98.2544
2023-05-14T03:54:28.499Z,98.2857
2023-05-14T03:55:28.603Z,98.3215
2023-05-14T03:56:29.768Z,98.3616
2023-05-14T03:57:30.411Z,98.3752
2023-05-14T03:58:30.501Z,98.3959
2023-05-14T03:59:31.841Z,98.4047
2023-05-14T04:00:32.932Z,98.4038
2023-05-14T04:01:32.999Z,98.3181
2023-05-14T04:02:33.805Z,98.2215
2023-05-14T04:03:34.094Z,98.1039
2023-05-14T04:04:35.447Z,98.0736
2023-05-14T04:05:35.554Z,98.0711
2023-05-14T04:06:35.624Z,98.0091
2023-05-14T04:07:36.405Z,97.9139
2023-05-14T04:08:37.237Z,97.7528
2023-05-14T04:09:37.961Z,97.7262
2023-05-14T04:10:38.071Z,97.6528
2023-05-14T04:11:38.145Z,97.5460
2023-05-14T04:12:38.906Z,97.4915
2023-05-14T04:13:39.461Z,97.5554
2023-05-14T04:14:39.553Z,97.6498
2023-05-14T04:15:40.558Z,97.6710
2023-05-14T04:16:40.750Z,97.4792
2023-05-14T04:17:41.249Z,97.1928
2023-05-14T04:18:41.984Z,97.1646
2023-05-14T04:19:42.738Z,97.1358
2023-05-14T04:25:47.636Z,96.4757
2023-05-14T04:26:48.467Z,96.6105
2023-05-14T04:27:49.145Z,96.3695
2023-05-14T04:28:49.227Z,95.8654
2023-05-14T04:29:49.953Z,95.8619
2023-05-14T04:30:50.850Z,95.6687
2023-05-14T04:31:50.962Z,95.1971
2023-05-14T04:32:51.697Z,95.5291
2023-05-14T04:33:51.778Z,95.3932
2023-05-14T04:34:52.458Z,95.6236
2023-05-14T04:35:52.596Z,95.7633
2023-05-14T04:36:53.346Z,95.7288
2023-05-14T04:37:54.193Z,95.2017
2023-05-14T04:38:54.843Z,95.2932
2023-05-14T04:39:55.730Z,95.7065
2023-05-14T04:40:56.475Z,95.6843
2023-05-14T04:41:56.571Z,95.4582
2023-05-14T04:42:57.249Z,95.3806
2023-05-14T04:43:57.932Z,94.9437
2023-05-14T04:44:57.994Z,94.7868
2023-05-14T04:45:58.962Z,94.6624
2023-05-14T04:46:59.714Z,94.0708
2023-05-14T04:47:59.836Z,94.6104
2023-05-14T04:49:00.611Z,94.6764
2023-05-14T04:50:00.689Z,94.1413
2023-05-14T04:57:07.497Z,94.2487
2023-05-14T04:58:07.625Z,94.3798
2023-05-14T04:59:07.959Z,93.7120
2023-05-14T05:00:08.060Z,93.7706
2023-05-14T05:01:08.251Z,93.4877
2023-05-14T05:02:08.322Z,93.9856
2023-05-14T05:03:09.086Z,94.4660
2023-05-14T05:04:09.358Z,94.4069
2023-05-14T05:05:09.941Z,93.7238
2023-05-14T05:06:10.905Z,92.7572
2023-05-14T05:07:10.978Z,92.8622
2023-05-14T05:08:11.745Z,91.9479
2023-05-14T05:09:12.523Z,91.4277
2023-05-14T05:11:16.133Z,91.6233
2023-05-14T05:12:16.897Z,92.2870
2023-05-14T05:13:18.267Z,91.0621
2023-05-14T05:14:18.356Z,90.8487
2023-05-14T05:15:18.419Z,91.5264
2023-05-14T05:16:18.694Z,92.0467
2023-05-14T05:17:18.789Z,92.4547
2023-05-14T05:18:18.878Z,91.4276
2023-05-14T05:19:20.844Z,91.3032
2023-05-14T05:20:19.797Z,91.6410
2023-05-14T05:21:20.363Z,91.6082
2023-05-14T05:22:20.420Z,91.3888
2023-05-14T05:23:21.645Z,90.8161
2023-05-14T05:24:22.382Z,90.9156
2023-05-14T05:25:23.776Z,91.6150
2023-05-14T05:26:23.842Z,90.5007
2023-05-14T05:27:24.542Z,90.2666
2023-05-14T05:28:24.709Z,90.1457
2023-05-14T05:29:25.373Z,89.8080
2023-05-14T05:30:26.254Z,89.9745
2023-05-14T05:31:26.457Z,90.6194
2023-05-14T05:32:27.234Z,89.8888
2023-05-14T05:33:27.286Z,89.5553
2023-05-14T05:34:28.075Z,89.7498
2023-05-14T05:35:28.973Z,89.3165
2023-05-14T05:36:29.079Z,89.4309
2023-05-14T05:37:30.087Z,90.1485
2023-05-14T05:38:30.189Z,89.0856
2023-05-14T05:39:30.266Z,89.2394
2023-05-14T05:40:30.402Z,90.0922
2023-05-14T05:41:30.460Z,90.3512
2023-05-14T05:42:30.866Z,90.4703
2023-05-14T05:43:31.000Z,89.5503
2023-05-14T05:44:31.107Z,89.3883
2023-05-14T05:45:31.793Z,89.2662
2023-05-14T05:46:31.950Z,90.3316
2023-05-14T05:47:32.654Z,90.0117
2023-05-14T05:48:33.309Z,89.4729
2023-05-14T05:49:33.599Z,89.4066
2023-05-14T05:50:34.329Z,88.2570
2023-05-14T05:51:35.070Z,88.2289
2023-05-14T05:52:35.777Z,87.9064
2023-05-14T05:53:35.865Z,87.4248
2023-05-14T05:54:36.627Z,87.0855
2023-05-14T05:55:37.468Z,87.2282
2023-05-14T05:56:37.553Z,86.6307
2023-05-14T05:57:37.641Z,86.3033
2023-05-14T05:58:37.980Z,85.7460
2023-05-14T05:59:38.090Z,85.6482
2023-05-14T06:00:39.076Z,86.3938
2023-05-14T06:01:40.286Z,85.8088
2023-05-14T06:03:45.268Z,87.5367
2023-05-14T06:04:44.990Z,87.0154
2023-05-14T06:05:45.210Z,87.6616
2023-05-14T06:06:45.958Z,87.3226
2023-05-14T06:07:46.692Z,87.7437
2023-05-14T06:09:46.895Z,88.6216
2023-05-14T06:10:47.634Z,89.6239
2023-05-14T06:27:15.538Z,91.6494
2023-05-14T06:28:16.231Z,91.0292
2023-05-14T06:29:17.034Z,91.4083
2023-05-14T06:31:20.477Z,91.1987
2023-05-14T06:32:21.403Z,90.9275
2023-05-14T06:33:21.586Z,91.4186
2023-05-14T06:34:22.282Z,90.9461
2023-05-14T06:35:23.002Z,90.8379
2023-05-14T06:38:26.354Z,90.2267
2023-05-14T06:39:27.021Z,90.2455
2023-05-14T06:40:27.786Z,89.6508
2023-05-14T06:41:27.848Z,89.8453
2023-05-14T06:42:27.941Z,90.2663
2023-05-14T06:43:45.739Z,90.8420
2023-05-14T06:44:29.610Z,90.6592
2023-05-14T06:45:33.189Z,90.2255
2023-05-14T06:46:33.415Z,90.5651
2023-05-14T06:47:34.267Z,90.6117
2023-05-14T06:48:35.174Z,90.7107
2023-05-14T06:50:35.806Z,90.8878
2023-05-14T06:52:37.487Z,89.6708
2023-05-14T07:03:11.796Z,90.4985
2023-05-14T07:03:53.650Z,90.4783
2023-05-14T07:04:54.187Z,90.0827
2023-05-14T07:05:54.382Z,90.4827
2023-05-14T07:06:55.078Z,90.5364
2023-05-14T07:07:55.220Z,91.3671
2023-05-14T07:08:55.897Z,92.2680
2023-05-14T07:09:56.678Z,92.3776
2023-05-14T07:10:56.759Z,92.6255
2023-05-14T07:11:56.840Z,92.5187
2023-05-14T07:12:57.514Z,92.0541
2023-05-14T07:13:58.249Z,92.0639
2023-05-14T07:14:58.367Z,91.8194
2023-05-14T07:15:58.466Z,92.0705
2023-05-14T07:16:58.639Z,92.4421
2023-05-14T07:17:59.423Z,92.4523
2023-05-14T07:18:59.557Z,93.0225
2023-05-14T07:20:00.294Z,92.7538
2023-05-14T07:21:00.427Z,92.5886
2023-05-14T07:22:01.155Z,93.4196
2023-05-14T07:23:01.233Z,93.4879
2023-05-14T07:24:01.315Z,93.4173
2023-05-14T07:25:02.123Z,93.4574
2023-05-14T07:26:02.209Z,92.6816
2023-05-14T07:27:03.009Z,92.2974
2023-05-14T07:28:03.739Z,92.6567
2023-05-14T07:29:04.594Z,92.2406
2023-05-14T07:31:05.947Z,90.4654
2023-05-14T07:32:06.034Z,89.4961
2023-05-14T07:33:06.813Z,89.5405
2023-05-14T07:34:07.707Z,89.3601
2023-05-14T07:35:07.830Z,88.8165
2023-05-14T07:36:08.546Z,87.9217
2023-05-14T07:37:08.626Z,86.6898
2023-05-14T07:38:09.422Z,87.3419
2023-05-14T07:39:09.512Z,87.4349
2023-05-14T07:40:10.290Z,87.9912
2023-05-14T07:41:10.409Z,88.4418
2023-05-14T07:42:10.448Z,89.0676
2023-05-14T07:43:10.544Z,88.8803
2023-05-14T07:44:10.640Z,88.6329
2023-05-14T07:45:10.932Z,87.8322
2023-05-14T07:46:11.105Z,86.8261
2023-05-14T07:47:11.704Z,85.5543
2023-05-14T07:48:12.186Z,83.7321
2023-05-14T07:49:13.092Z,82.5150
2023-05-14T07:50:14.341Z,81.6119
2023-05-14T07:51:16.186Z,80.6398
2023-05-14T07:52:23.281Z,80.3755
2023-05-14T08:00:28.678Z,78.0303
2023-05-14T08:01:28.870Z,78.7522
2023-05-14T08:02:29.016Z,81.1515
2023-05-14T08:03:42.442Z,82.6372
2023-05-14T08:04:31.708Z,84.2413
2023-05-14T08:05:31.786Z,83.3400
2023-05-14T08:06:32.517Z,81.0613
2023-05-14T08:07:35.159Z,78.7510
2023-05-14T08:08:35.259Z,76.9008
2023-05-14T08:09:35.336Z,79.5710
2023-05-14T08:10:36.187Z,81.1632
2023-05-14T08:11:36.332Z,80.3716
2023-05-14T08:12:36.444Z,79.0453
2023-05-14T08:13:37.206Z,78.2932
2023-05-14T08:14:38.063Z,77.5606
2023-05-14T08:15:38.155Z,79.2466
2023-05-14T08:16:38.887Z,78.6795
2023-05-14T08:17:39.045Z,77.9615
2023-05-14T08:19:40.555Z,82.1016
2023-05-14T08:20:40.640Z,83.3648
2023-05-14T08:21:41.484Z,81.3193
2023-05-14T08:22:41.578Z,78.0731
2023-05-14T08:23:42.554Z,78.3681
2023-05-14T08:24:42.654Z,78.1726
2023-05-14T08:25:42.802Z,76.7769
2023-05-14T08:26:42.866Z,79.4657
2023-05-14T08:27:42.983Z,82.3759
2023-05-14T08:28:43.931Z,82.5770
2023-05-14T08:29:44.030Z,84.3273
2023-05-14T08:30:44.801Z,83.2076
2023-05-14T08:31:44.875Z,82.9487
2023-05-14T08:32:45.579Z,82.8875
2023-05-14T08:33:47.035Z,83.6564
2023-05-14T08:34:48.510Z,83.0737
2023-05-14T08:35:49.252Z,81.9403
2023-05-14T08:36:53.667Z,82.7493
2023-05-14T08:40:54.148Z,82.0898
2023-05-14T08:41:55.161Z,80.6294
2023-05-14T08:42:55.497Z,80.2293
2023-05-14T08:43:56.504Z,80.7193
2023-05-14T08:44:56.840Z,80.3429
2023-05-14T08:45:57.664Z,81.1231
2023-05-14T08:46:58.555Z,81.4964
2023-05-14T08:47:59.656Z,79.9578
2023-05-14T08:49:00.579Z,80.1924
2023-05-14T08:50:01.559Z,80.4983
2023-05-14T08:51:02.149Z,80.7663
2023-05-14T08:52:03.603Z,80.8289
2023-05-14T08:53:03.748Z,79.7803
2023-05-14T08:54:05.585Z,79.1940
2023-05-14T08:55:06.607Z,78.7777
2023-05-14T08:56:07.013Z,77.8231
2023-05-14T08:57:07.157Z,76.0425
2023-05-14T08:58:20.974Z,76.4752
2023-05-14T08:59:21.082Z,78.6245
2023-05-14T09:00:21.316Z,78.2703
2023-05-14T09:01:21.734Z,74.6253
2023-05-14T09:02:22.847Z,73.6044
2023-05-14T09:03:23.349Z,73.7027
2023-05-14T09:04:23.544Z,73.5336
2023-05-14T09:05:24.482Z,73.8076
2023-05-14T09:06:24.765Z,71.7204
2023-05-14T09:07:25.273Z,70.6090
2023-05-14T09:08:28.866Z,71.0272
2023-05-14T09:13:32.857Z,73.7727
2023-05-14T09:14:33.006Z,71.4115
2023-05-14T09:15:33.964Z,75.5247
2023-05-14T09:16:34.747Z,74.4800
2023-05-14T09:17:35.426Z,75.6382
2023-05-14T09:18:36.223Z,74.7788
2023-05-14T09:19:36.327Z,74.1007
2023-05-14T09:20:37.074Z,75.3217
2023-05-14T09:21:37.203Z,77.3308
2023-05-14T09:22:58.334Z,77.5882
2023-05-14T09:23:40.532Z,78.4956
2023-05-14T09:24:41.022Z,79.3361
2023-05-14T09:25:41.869Z,79.5560
2023-05-14T09:26:41.994Z,79.5883
2023-05-14T09:27:42.118Z,79.5008
2023-05-14T09:28:42.236Z,79.5028
2023-05-14T09:29:42.406Z,79.2577
2023-05-14T09:30:42.558Z,79.4105
2023-05-14T09:31:43.501Z,80.0821
2023-05-14T09:32:44.399Z,80.4315
2023-05-14T09:33:44.889Z,80.5889
2023-05-14T09:34:45.466Z,81.4463
2023-05-14T09:35:45.661Z,81.8485
2023-05-14T09:36:46.378Z,82.3993
2023-05-14T09:37:46.673Z,79.7994
2023-05-14T09:38:46.935Z,78.9648
2023-05-14T09:39:47.831Z,80.0065
2023-05-14T09:40:48.181Z,80.2165
2023-05-14T09:41:48.302Z,78.8491
2023-05-14T09:42:48.990Z,78.2066
2023-05-14T09:43:49.922Z,78.2297
2023-05-14T09:45:50.709Z,77.0035
2023-05-14T09:46:51.458Z,77.4875
2023-05-14T09:48:51.962Z,77.7865
2023-05-14T09:49:52.095Z,77.4792
2023-05-14T09:50:52.426Z,77.4055
2023-05-14T09:51:53.299Z,76.4234
2023-05-14T09:52:54.120Z,77.3718
2023-05-14T09:53:54.466Z,78.1207
2023-05-14T09:54:55.454Z,78.7189
2023-05-14T09:55:55.663Z,78.1633
2023-05-14T09:56:55.962Z,78.3921
2023-05-14T09:57:57.150Z,80.1337
2023-05-14T09:58:57.274Z,81.0346
2023-05-14T09:59:57.453Z,80.6809
2023-05-14T10:00:57.711Z,81.0982
2023-05-14T10:01:57.884Z,82.4038
2023-05-14T10:02:58.023Z,82.7703
2023-05-14T10:04:02.562Z,83.2693
2023-05-14T10:10:08.921Z,82.3552
2023-05-14T10:11:09.047Z,81.7981
2023-05-14T10:12:09.696Z,83.4804
2023-05-14T10:13:10.263Z,82.1604
2023-05-14T10:14:11.596Z,81.6632
2023-05-14T10:15:12.328Z,81.2820
2023-05-14T10:16:12.927Z,81.5966
2023-05-14T10:17:13.188Z,82.5046
2023-05-14T10:18:13.355Z,82.1278
2023-05-14T10:19:14.020Z,81.7773
2023-05-14T10:20:14.177Z,81.6031
2023-05-14T10:21:14.287Z,81.3825
2023-05-14T10:22:14.959Z,81.7492
2023-05-14T10:23:16.284Z,80.6827
2023-05-14T10:24:16.440Z,81.4195
2023-05-14T10:25:16.561Z,82.5795
2023-05-14T10:26:17.596Z,82.7171
2023-05-14T10:27:17.736Z,81.1880
2023-05-14T10:28:17.900Z,80.1313
2023-05-14T10:29:18.054Z,79.9863
2023-05-14T10:30:18.200Z,79.9871
2023-05-14T10:31:18.414Z,80.8294
2023-05-14T10:32:18.621Z,80.5942
2023-05-14T10:33:18.868Z,81.9566
2023-05-14T10:34:19.056Z,81.3697
2023-05-14T10:35:20.009Z,81.7084
2023-05-14T10:36:20.136Z,80.7838
2023-05-14T10:37:20.673Z,82.3509
2023-05-14T10:38:20.771Z,81.3791
2023-05-14T10:39:21.869Z,80.7808
2023-05-14T10:40:22.927Z,80.5222
2023-05-14T10:41:23.382Z,81.4685
2023-05-14T10:42:23.561Z,80.1658
2023-05-14T10:43:23.638Z,81.1573
2023-05-14T10:44:23.872Z,80.5534
2023-05-14T10:45:24.421Z,80.3000
2023-05-14T10:46:24.655Z,79.8922
2023-05-14T10:47:24.794Z,79.8868
2023-05-14T10:48:25.080Z,80.3829
2023-05-14T10:49:39.718Z,79.8953
2023-05-14T10:50:26.972Z,78.3296
2023-05-14T10:51:27.786Z,78.3325
2023-05-14T10:52:27.914Z,75.9748
2023-05-14T10:53:28.015Z,76.5248
2023-05-14T10:54:29.126Z,77.8288
2023-05-14T10:55:29.316Z,76.7758
2023-05-14T10:56:29.434Z,76.1811
2023-05-14T10:57:30.260Z,78.2689
2023-05-14T10:58:30.420Z,77.1007
2023-05-14T10:59:31.190Z,75.8145
2023-05-14T11:00:31.359Z,76.3226
2023-05-14T11:01:31.494Z,75.4692
2023-05-14T11:02:32.263Z,76.4566
2023-05-14T11:03:33.125Z,76.4068
2023-05-14T11:04:33.425Z,75.3942
2023-05-14T11:05:33.541Z,74.2920
2023-05-14T11:06:33.682Z,74.1638
2023-05-14T11:07:33.787Z,73.7987
2023-05-14T11:08:33.948Z,75.1313
2023-05-14T11:09:34.685Z,70.5791
2023-05-14T11:10:34.889Z,67.9661
2023-05-14T11:11:35.716Z,67.9638
2023-05-14T11:12:35.871Z,67.3140
2023-05-14T11:13:36.002Z,70.8377
2023-05-14T11:14:36.140Z,69.5324
2023-05-14T11:15:36.344Z,70.1834
2023-05-14T11:16:37.185Z,69.4152
2023-05-14T11:17:37.405Z,68.5059
2023-05-14T11:18:38.274Z,71.2863
2023-05-14T11:19:38.395Z,71.0982
2023-05-14T11:20:38.520Z,72.5639
2023-05-14T11:21:39.527Z,72.3959
2023-05-14T11:22:39.681Z,74.3178
2023-05-14T11:23:40.003Z,76.9026
2023-05-14T11:24:40.191Z,78.5545
2023-05-14T11:25:40.803Z,78.3189
2023-05-14T11:26:41.011Z,78.9795
2023-05-14T11:27:41.813Z,79.3785
2023-05-14T11:28:41.949Z,79.4376
2023-05-14T11:29:42.734Z,78.8353
2023-05-14T11:30:43.755Z,79.7514
2023-05-14T11:33:48.005Z,79.3694
2023-05-14T11:34:48.147Z,78.9318
2023-05-14T11:35:48.302Z,78.3567
2023-05-14T11:36:48.454Z,77.8363
2023-05-14T11:37:50.898Z,77.7135
2023-05-14T11:38:51.054Z,78.4907
2023-05-14T11:39:58.359Z,77.7283
2023-05-14T11:42:10.508Z,75.4958
2023-05-14T11:42:59.144Z,74.7615
2023-05-14T11:43:59.992Z,76.1345
2023-05-14T11:45:00.755Z,75.8589
2023-05-14T11:46:00.960Z,75.5325
2023-05-14T11:47:01.793Z,76.2412
2023-05-14T11:48:01.946Z,76.2589
2023-05-14T11:49:02.723Z,75.0559
2023-05-14T11:50:19.972Z,75.5170
2023-05-14T11:51:42.306Z,76.2657
2023-05-14T11:52:43.341Z,76.8934
2023-05-14T11:53:44.797Z,77.4158
2023-05-14T11:54:45.334Z,75.9875
2023-05-14T11:55:45.674Z,74.5729
2023-05-14T11:57:03.262Z,75.2343
2023-05-14T11:57:47.835Z,74.6965
2023-05-14T11:58:48.623Z,74.4902
2023-05-14T11:59:48.767Z,73.5986
2023-05-14T12:00:50.053Z,74.0246
2023-05-14T12:01:50.993Z,72.7477
2023-05-14T12:02:51.214Z,71.6766
2023-05-14T12:03:52.325Z,71.0398
2023-05-14T12:04:53.831Z,70.1136
2023-05-14T12:05:54.602Z,72.7717
2023-05-14T12:06:54.948Z,72.0304
2023-05-14T12:07:55.496Z,73.4198
2023-05-14T12:08:55.948Z,75.2736
2023-05-14T12:09:56.169Z,77.1933
2023-05-14T12:10:56.447Z,76.6416
2023-05-14T12:11:56.906Z,76.1988
2023-05-14T12:12:57.314Z,76.5656
2023-05-14T12:13:57.709Z,76.2197
2023-05-14T12:14:58.050Z,77.0624
2023-05-14T12:15:58.262Z,77.5004
2023-05-14T12:16:58.645Z,78.7500
2023-05-14T12:18:59.550Z,81.2002
2023-05-14T12:19:59.737Z,82.4895
2023-05-14T12:21:01.497Z,82.4013
2023-05-14T12:22:02.291Z,83.2499
2023-05-14T12:23:02.406Z,83.6053
2023-05-14T12:24:03.345Z,84.0960
2023-05-14T12:25:04.377Z,84.6829
2023-05-14T12:26:04.572Z,84.5695
2023-05-14T12:27:05.635Z,84.8655
2023-05-14T12:28:05.979Z,85.3805
2023-05-14T12:29:06.331Z,85.2110
2023-05-14T12:31:07.389Z,86.5019
2023-05-14T12:32:08.842Z,86.4865
2023-05-14T12:33:09.710Z,86.8990
2023-05-14T12:34:09.856Z,86.9416
2023-05-14T12:35:10.631Z,87.5586
2023-05-14T12:36:21.188Z,88.1210
2023-05-14T12:37:13.912Z,88.2139
2023-05-14T12:38:15.020Z,88.7983
2023-05-14T12:39:15.466Z,89.6568
2023-05-14T12:40:15.625Z,89.4297
2023-05-14T12:41:15.960Z,89.1528
2023-05-14T12:42:17.652Z,89.3056
2023-05-14T12:43:17.818Z,89.9263
2023-05-14T12:44:17.951Z,89.9836
2023-05-14T12:45:18.068Z,90.5814
2023-05-14T12:46:18.193Z,90.3571
2023-05-14T12:47:18.423Z,90.0195
2023-05-14T12:48:18.574Z,89.5598
2023-05-14T12:49:18.728Z,89.7287
2023-05-14T12:50:19.496Z,89.2309
2023-05-14T12:52:36.124Z,89.4883
2023-05-14T12:53:24.047Z,90.8591
2023-05-14T13:03:38.265Z,88.5719
2023-05-14T13:04:38.659Z,86.4408
2023-05-14T13:05:41.422Z,87.3244
2023-05-14T13:09:44.265Z,87.1009
2023-05-14T13:10:44.421Z,87.0697
2023-05-14T13:11:44.563Z,86.2373
2023-05-14T13:12:44.692Z,87.1215
2023-05-14T13:13:44.834Z,85.1049
2023-05-14T13:14:44.982Z,82.8734
2023-05-14T13:15:45.182Z,83.4173
2023-05-14T13:16:45.408Z,83.1747
2023-05-14T13:17:45.682Z,83.1303
2023-05-14T13:18:45.846Z,82.9431
2023-05-14T13:19:45.968Z,83.9574
2023-05-14T13:20:46.127Z,83.2604
2023-05-14T13:21:46.272Z,83.1876
2023-05-14T13:22:46.392Z,84.0960
2023-05-14T13:23:46.532Z,83.2371
2023-05-14T13:24:46.887Z,82.7058
2023-05-14T13:25:49.671Z,83.0304
2023-05-14T13:26:47.351Z,83.0092
2023-05-14T13:27:47.503Z,82.0066
2023-05-14T13:28:47.703Z,81.3349
2023-05-14T13:30:49.049Z,82.7133
2023-05-14T13:31:49.181Z,81.7807
2023-05-14T13:33:50.168Z,81.4104
2023-05-14T13:34:50.338Z,80.9832
2023-05-14T13:35:51.288Z,80.1382
2023-05-14T13:36:52.471Z,81.0873
2023-05-14T13:37:53.973Z,81.0774
2023-05-14T13:38:55.594Z,80.9305
2023-05-14T13:39:56.012Z,80.7238
2023-05-14T13:40:56.389Z,80.5656
2023-05-14T13:41:56.598Z,80.3621
2023-05-14T13:42:57.525Z,80.2308
2023-05-14T13:43:58.308Z,79.6384
2023-05-14T13:44:58.477Z,78.3809
2023-05-14T13:45:58.727Z,77.6997
2023-05-14T13:46:58.916Z,79.0470
2023-05-14T13:47:59.115Z,77.6015
2023-05-14T13:48:59.323Z,77.9966
2023-05-14T13:51:00.188Z,76.0754
2023-05-14T13:52:00.359Z,78.2222
2023-05-14T13:53:01.398Z,80.4771
2023-05-14T13:54:02.223Z,81.0469
2023-05-14T13:55:02.385Z,80.3025
2023-05-14T13:56:03.234Z,80.2701
2023-05-14T13:57:03.470Z,79.3570
2023-05-14T13:58:04.070Z,77.6032
2023-05-14T13:59:04.845Z,75.7236
2023-05-14T14:00:05.751Z,74.0380